Time;durP1;ratioP1;P1;durP2;ratioP2;P2;SDS_P1;SDS_P2;PMS_P1;PMS_P2;Temp;Humidity;BMP_temperature;BMP_pressure;BME280_temperature;BME280_humidity;BME280_pressure;Samples;Min_cycle;Max_cycle;Signal;HPM_P1;HPM_P2
2024/01/25 00:01:24;;;;;;;8.40;5.50;;;;;;;1.84;90.85;98279.06;107496;1252;59264;-40
2024/01/25 00:03:51;;;;;;;7.80;5.90;;;;;;;1.81;91.08;98279.40;107492;1251;73826;-40
2024/01/25 00:06:20;;;;;;;6.30;5.10;;;;;;;1.80;91.08;98272.34;107499;1251;68430;-41
2024/01/25 00:08:48;;;;;;;6.30;5.00;;;;;;;1.84;90.83;98278.45;107445;1253;72689;-41
2024/01/25 00:11:17;;;;;;;6.00;4.80;;;;;;;1.88;90.91;98275.48;107397;1253;60347;-40
2024/01/25 00:13:45;;;;;;;6.80;5.60;;;;;;;1.86;91.11;98277.38;107469;1251;60287;-40
2024/01/25 00:16:12;;;;;;;7.20;4.90;;;;;;;1.83;91.24;98272.79;107483;1257;72645;-40
2024/01/25 00:18:40;;;;;;;7.10;4.70;;;;;;;1.87;91.17;98266.34;107522;1251;66248;-40
2024/01/25 00:21:08;;;;;;;6.40;5.00;;;;;;;1.91;90.93;98267.25;107511;1251;72421;-41
2024/01/25 00:23:35;;;;;;;5.90;4.60;;;;;;;1.93;90.97;98266.41;107529;1253;60424;-41
2024/01/25 00:26:04;;;;;;;7.10;5.60;;;;;;;1.91;91.16;98259.98;107485;1251;60192;-41
2024/01/25 00:28:33;;;;;;;6.50;4.70;;;;;;;1.87;91.22;98255.90;107511;1254;72645;-41
2024/01/25 00:31:01;;;;;;;6.10;4.40;;;;;;;1.91;91.13;98252.66;107480;1251;67711;-41
2024/01/25 00:33:28;;;;;;;7.80;5.00;;;;;;;1.95;91.12;98252.14;107323;1253;72463;-39
2024/01/25 00:35:56;;;;;;;6.80;5.20;;;;;;;1.94;91.07;98250.23;107496;1251;60429;-40
2024/01/25 00:38:26;;;;;;;6.70;4.90;;;;;;;1.88;91.26;98245.29;107479;1251;60492;-39
2024/01/25 00:40:54;;;;;;;6.50;4.70;;;;;;;1.88;91.44;98243.19;107535;1254;72580;-39
2024/01/25 00:43:22;;;;;;;6.20;4.50;;;;;;;1.94;91.11;98238.29;107515;1254;67295;-40
2024/01/25 00:45:51;;;;;;;5.00;4.40;;;;;;;1.96;91.38;98236.81;107475;1253;71067;-41
2024/01/25 00:48:19;;;;;;;6.50;4.40;;;;;;;1.95;91.58;98236.98;107686;1253;60520;-40
2024/01/25 00:50:47;;;;;;;6.40;4.60;;;;;;;1.94;91.35;98235.84;107684;1253;60364;-41
2024/01/25 00:53:15;;;;;;;6.10;4.80;;;;;;;1.99;91.03;98238.99;107387;1251;72613;-42
2024/01/25 00:55:43;;;;;;;5.00;4.30;;;;;;;2.03;91.00;98234.89;107466;1251;68219;-41
2024/01/25 00:58:11;;;;;;;6.80;4.50;;;;;;;1.99;91.29;98235.77;107462;1253;71188;-42
2024/01/25 01:00:39;;;;;;;6.20;4.20;;;;;;;1.96;91.38;98228.70;107552;1253;60578;-41
2024/01/25 01:03:08;;;;;;;4.20;3.60;;;;;;;2.00;91.34;98222.66;107569;1253;60371;-41
2024/01/25 01:05:36;;;;;;;5.60;4.10;;;;;;;2.05;91.08;98224.27;107487;1253;73832;-41
2024/01/25 01:08:04;;;;;;;5.70;4.50;;;;;;;2.05;91.34;98222.45;107554;1253;68359;-42
2024/01/25 01:10:32;;;;;;;5.70;3.90;;;;;;;2.02;91.51;98219.63;107703;1251;72795;-42
2024/01/25 01:12:59;;;;;;;5.90;3.90;;;;;;;2.01;91.77;98217.33;107506;1253;60550;-41
2024/01/25 01:15:27;;;;;;;7.40;3.80;;;;;;;2.06;91.70;98217.97;107600;1253;59585;-39
2024/01/25 01:17:55;;;;;;;5.40;3.80;;;;;;;2.11;91.45;98216.70;106767;1253;1003458;-39
2024/01/25 01:20:23;;;;;;;6.90;4.50;;;;;;;2.11;91.63;98212.20;107657;1252;67549;-39
2024/01/25 01:22:52;;;;;;;8.20;4.00;;;;;;;2.08;91.94;98213.77;107519;1254;71085;-39
2024/01/25 01:25:19;;;;;;;5.80;4.00;;;;;;;2.09;91.87;98210.60;107612;1253;60857;-41
2024/01/25 01:27:47;;;;;;;4.50;3.50;;;;;;;2.17;91.88;98204.58;107519;1253;60230;-40
2024/01/25 01:30:15;;;;;;;5.10;4.10;;;;;;;2.20;91.59;98202.55;107572;1253;72657;-40
2024/01/25 01:32:42;;;;;;;7.10;4.10;;;;;;;2.19;91.87;98197.79;107501;1254;67195;-40
2024/01/25 01:35:10;;;;;;;6.60;4.50;;;;;;;2.16;91.85;98198.55;107454;1251;72494;-40
2024/01/25 01:37:38;;;;;;;6.00;4.10;;;;;;;2.20;91.59;98195.14;107384;1253;60201;-41
2024/01/25 01:40:06;;;;;;;6.50;4.00;;;;;;;2.26;91.51;98187.52;107419;1257;60414;-40
2024/01/25 01:42:34;;;;;;;5.10;3.90;;;;;;;2.28;91.50;98188.02;107446;1251;73903;-41
2024/01/25 01:45:01;;;;;;;5.60;4.40;;;;;;;2.26;91.73;98180.04;107443;1257;68369;-40
2024/01/25 01:47:29;;;;;;;6.60;4.30;;;;;;;2.24;91.80;98178.30;106690;1257;1002992;-41
2024/01/25 01:49:57;;;;;;;5.50;4.00;;;;;;;2.29;91.78;98176.01;107424;1252;60917;-41
2024/01/25 01:52:25;;;;;;;7.80;4.10;;;;;;;2.35;91.79;98174.98;107415;1251;59635;-40
2024/01/25 01:54:53;;;;;;;8.80;4.40;;;;;;;2.36;92.02;98172.05;107417;1251;73912;-40
2024/01/25 01:57:21;;;;;;;6.50;3.80;;;;;;;2.36;92.65;98172.97;107424;1252;67412;-40
2024/01/25 01:59:50;;;;;;;4.30;2.90;;;;;;;2.38;92.67;98168.21;107513;1253;72661;-40
2024/01/25 02:02:17;;;;;;;8.10;3.60;;;;;;;2.44;92.64;98161.08;107662;1252;60441;-40
2024/01/25 02:04:44;;;;;;;4.50;3.30;;;;;;;2.49;92.71;98157.63;107520;1253;60414;-40
2024/01/25 02:07:14;;;;;;;4.40;3.20;;;;;;;2.49;92.63;98157.31;107504;1251;72554;-40
2024/01/25 02:09:42;;;;;;;4.90;3.30;;;;;;;2.45;92.79;98158.59;107528;1256;68395;-40
2024/01/25 02:12:09;;;;;;;5.60;3.00;;;;;;;2.48;92.83;98150.55;107471;1253;71691;-40
2024/01/25 02:14:37;;;;;;;5.40;3.10;;;;;;;2.53;92.67;98149.89;107513;1253;60918;-40
2024/01/25 02:17:04;;;;;;;5.90;3.10;;;;;;;2.55;92.51;98145.42;107427;1251;60285;-39
2024/01/25 02:19:32;;;;;;;5.20;3.20;;;;;;;2.50;92.87;98142.30;107431;1252;74265;-40
2024/01/25 02:22:00;;;;;;;5.10;3.30;;;;;;;2.49;92.86;98142.58;107635;1251;67149;-40
2024/01/25 02:24:27;;;;;;;5.40;2.90;;;;;;;2.53;92.92;98142.67;107437;1253;72482;-40
2024/01/25 02:26:55;;;;;;;4.70;2.80;;;;;;;2.57;92.70;98140.84;107517;1253;60553;-41
2024/01/25 02:29:23;;;;;;;6.70;3.20;;;;;;;2.58;92.77;98146.13;107513;1251;60448;-41
2024/01/25 02:31:50;;;;;;;4.60;3.00;;;;;;;2.54;92.77;98144.80;107436;1251;74318;-40
2024/01/25 02:34:18;;;;;;;5.60;3.10;;;;;;;2.53;92.76;98141.48;107429;1251;68900;-40
2024/01/25 02:36:46;;;;;;;4.70;3.30;;;;;;;2.59;92.69;98137.84;107436;1257;71185;-40
2024/01/25 02:39:13;;;;;;;5.80;3.40;;;;;;;2.63;92.29;98139.20;107514;1251;60322;-40
2024/01/25 02:41:41;;;;;;;5.50;2.80;;;;;;;2.63;92.50;98141.33;107467;1257;60336;-40
2024/01/25 02:44:08;;;;;;;4.40;2.80;;;;;;;2.60;92.64;98138.42;107500;1253;73986;-40
2024/01/25 02:46:35;;;;;;;5.00;3.30;;;;;;;2.62;92.73;98132.89;107509;1251;69041;-40
2024/01/25 02:49:03;;;;;;;5.40;3.10;;;;;;;2.70;92.58;98133.33;107640;1251;72676;-41
2024/01/25 02:51:31;;;;;;;6.20;2.80;;;;;;;2.73;92.22;98134.12;107598;1253;60479;-40
2024/01/25 02:53:59;;;;;;;4.40;3.00;;;;;;;2.71;92.47;98130.84;107511;1251;60148;-40
2024/01/25 02:56:33;;;;;;;6.40;3.40;;;;;;;2.69;92.45;98131.09;107510;1257;72922;-41
2024/01/25 02:59:04;;;;;;;4.70;3.00;;;;;;;2.74;92.34;98126.89;107400;1253;66496;-41
2024/01/25 03:01:41;;;;;;;6.50;3.20;;;;;;;2.81;92.05;98126.48;107413;1251;73172;-41
2024/01/25 03:04:09;;;;;;;5.10;3.20;;;;;;;2.81;92.08;98123.89;107578;1253;61026;-40
2024/01/25 03:06:37;;;;;;;5.20;3.40;;;;;;;2.77;92.14;98122.02;107542;1251;60350;-40
2024/01/25 03:09:05;;;;;;;5.40;3.50;;;;;;;2.76;92.27;98121.52;107500;1251;73864;-40
2024/01/25 03:11:32;;;;;;;6.70;3.10;;;;;;;2.79;92.08;98119.55;107572;1251;67437;-40
2024/01/25 03:14:00;;;;;;;4.60;2.70;;;;;;;2.81;91.97;98117.39;107494;1253;70433;-40
2024/01/25 03:16:27;;;;;;;4.80;2.90;;;;;;;2.79;92.08;98115.42;107496;1251;60418;-41
2024/01/25 03:18:55;;;;;;;3.80;3.10;;;;;;;2.75;92.34;98113.77;107652;1251;60491;-40
2024/01/25 03:21:23;;;;;;;4.20;3.00;;;;;;;2.77;92.29;98111.98;107488;1251;72519;-40
2024/01/25 03:23:51;;;;;;;5.90;3.10;;;;;;;2.82;92.14;98107.94;107516;1251;68284;-40
2024/01/25 03:26:18;;;;;;;4.00;2.90;;;;;;;2.85;92.07;98102.89;107499;1253;72691;-40
2024/01/25 03:28:45;;;;;;;5.40;3.20;;;;;;;2.82;92.29;98109.02;107466;1259;60096;-40
2024/01/25 03:31:13;;;;;;;3.90;2.70;;;;;;;2.80;92.53;98107.80;107520;1253;60294;-41
2024/01/25 03:33:40;;;;;;;5.20;3.00;;;;;;;2.81;92.29;98108.83;107533;1253;73871;-41
2024/01/25 03:36:08;;;;;;;5.00;3.00;;;;;;;2.83;92.10;98104.67;107475;1253;68356;-41
2024/01/25 03:38:36;;;;;;;5.20;3.20;;;;;;;2.83;92.06;98104.59;107380;1254;72629;-40
2024/01/25 03:41:03;;;;;;;6.30;3.50;;;;;;;2.79;92.44;98112.22;107380;1253;60367;-40
2024/01/25 03:43:31;;;;;;;6.50;3.30;;;;;;;2.77;92.53;98108.84;107354;1253;60349;-40
2024/01/25 03:46:11;;;;;;;4.90;2.80;;;;;;;2.79;92.39;98110.77;107315;1258;72651;-40
2024/01/25 03:48:38;;;;;;;5.10;3.00;;;;;;;2.83;92.26;98105.05;107445;1253;67112;-41
2024/01/25 03:51:06;;;;;;;7.40;3.50;;;;;;;2.83;92.45;98102.00;107482;1253;71312;-40
2024/01/25 03:53:35;;;;;;;5.40;3.90;;;;;;;2.79;92.56;98106.54;107466;1253;60511;-40
2024/01/25 03:56:03;;;;;;;5.40;3.40;;;;;;;2.75;92.56;98108.27;107357;1253;141158;-40
2024/01/25 04:00:03;;;;;;;4.70;3.10;;;;;;;2.83;92.38;98101.31;104202;1295;600518;-40
2024/01/25 04:02:31;;;;;;;5.10;3.40;;;;;;;2.81;92.37;98095.67;106607;1269;60121;-41
2024/01/25 04:04:59;;;;;;;4.10;2.90;;;;;;;2.79;92.58;98097.75;106739;1267;59257;-40
2024/01/25 04:07:27;;;;;;;5.00;3.30;;;;;;;2.83;92.50;98096.42;106747;1267;70009;-40
2024/01/25 04:09:54;;;;;;;5.40;3.20;;;;;;;2.89;92.14;98096.81;106766;1267;69228;-41
2024/01/25 04:12:23;;;;;;;5.20;3.20;;;;;;;2.89;92.12;98096.29;106128;1263;1003817;-41
2024/01/25 04:14:50;;;;;;;4.50;3.10;;;;;;;2.84;92.19;98097.59;106906;1260;150552;-41
2024/01/25 04:17:18;;;;;;;4.70;2.80;;;;;;;2.80;92.37;98100.70;107056;1260;60029;-40
2024/01/25 04:19:45;;;;;;;6.10;3.10;;;;;;;2.84;92.16;98095.99;106933;1261;72297;-41
2024/01/25 04:22:13;;;;;;;5.00;3.30;;;;;;;2.87;91.94;98094.55;106964;1266;68347;-41
2024/01/25 04:24:40;;;;;;;5.40;3.20;;;;;;;2.84;92.27;98093.85;106996;1260;72436;-41
2024/01/25 04:27:08;;;;;;;7.30;3.50;;;;;;;2.80;92.45;98094.05;107000;1260;59565;-41
2024/01/25 04:29:41;;;;;;;5.40;3.40;;;;;;;2.82;92.37;98089.67;106990;1260;60231;-41
2024/01/25 04:32:09;;;;;;;7.10;3.70;;;;;;;2.88;92.13;98085.48;107083;1261;73048;-41
2024/01/25 04:34:36;;;;;;;7.10;4.20;;;;;;;2.89;92.27;98085.64;107004;1266;68695;-41
2024/01/25 04:37:04;;;;;;;7.00;3.80;;;;;;;2.84;92.41;98086.20;107024;1260;71232;-41
2024/01/25 04:39:32;;;;;;;7.50;3.90;;;;;;;2.83;92.63;98084.12;106954;1260;59682;-41
2024/01/25 04:41:59;;;;;;;6.80;3.30;;;;;;;2.88;92.51;98079.66;107017;1260;60039;-41
2024/01/25 04:44:27;;;;;;;6.70;3.40;;;;;;;2.72;92.30;98045.02;106934;1260;73042;-41
2024/01/25 04:46:54;;;;;;;5.80;3.70;;;;;;;2.94;92.44;98082.88;107035;1260;68126;-41
2024/01/25 04:49:22;;;;;;;6.70;3.50;;;;;;;2.91;92.51;98080.14;107025;1260;72706;-41
2024/01/25 04:51:50;;;;;;;5.20;3.50;;;;;;;2.90;92.51;98081.27;106996;1260;59593;-41
2024/01/25 04:54:18;;;;;;;4.70;2.90;;;;;;;2.95;92.25;98078.95;107056;1260;60077;-41
2024/01/25 04:56:45;;;;;;;4.50;2.80;;;;;;;3.02;92.03;98078.45;107009;1260;72160;-41
2024/01/25 04:59:13;;;;;;;6.30;3.20;;;;;;;3.05;92.00;98085.56;107009;1260;67415;-41
2024/01/25 05:01:40;;;;;;;6.00;3.60;;;;;;;3.03;92.06;98084.14;106966;1260;70465;-41
2024/01/25 05:04:08;;;;;;;5.10;3.60;;;;;;;3.00;92.05;98082.30;106900;1260;60043;-41
2024/01/25 05:06:36;;;;;;;7.20;3.40;;;;;;;3.02;91.83;98079.52;106898;1260;59586;-41
2024/01/25 05:09:04;;;;;;;6.60;3.80;;;;;;;3.10;91.58;98084.18;107024;1260;72778;-41
2024/01/25 05:11:31;;;;;;;6.50;3.60;;;;;;;3.11;91.65;98079.90;106903;1260;68874;-41
2024/01/25 05:13:59;;;;;;;6.90;4.00;;;;;;;3.07;91.79;98084.41;106949;1260;71423;-41
2024/01/25 05:16:26;;;;;;;8.30;3.90;;;;;;;3.04;91.84;98079.90;106927;1260;59642;-41
2024/01/25 05:18:54;;;;;;;8.80;4.20;;;;;;;3.08;91.53;98081.45;106990;1260;59444;-41
2024/01/25 05:21:22;;;;;;;9.10;4.00;;;;;;;3.11;91.35;98076.70;106985;1260;73040;-41
2024/01/25 05:23:49;;;;;;;7.90;4.30;;;;;;;3.07;91.39;98080.17;106993;1260;67403;-41
2024/01/25 05:26:17;;;;;;;6.90;3.80;;;;;;;3.00;91.68;98086.05;106977;1261;72440;-41
2024/01/25 05:28:45;;;;;;;7.50;4.10;;;;;;;2.93;91.62;98088.59;107015;1264;61028;-41
2024/01/25 05:31:12;;;;;;;6.80;3.80;;;;;;;2.93;91.55;98090.13;106976;1260;60052;-41
2024/01/25 05:33:40;;;;;;;6.30;4.00;;;;;;;2.94;91.63;98086.57;106977;1260;71778;-40
2024/01/25 05:36:09;;;;;;;7.70;4.10;;;;;;;2.90;91.90;98087.54;107012;1260;67447;-41
2024/01/25 05:38:37;;;;;;;7.60;4.10;;;;;;;2.87;92.18;98086.04;106994;1260;72707;-41
2024/01/25 05:41:04;;;;;;;12.00;4.70;;;;;;;2.87;92.13;98083.23;106993;1263;59651;-41
2024/01/25 05:43:33;;;;;;;8.80;4.30;;;;;;;2.91;92.03;98087.62;106980;1260;59628;-41
2024/01/25 05:46:00;;;;;;;8.70;4.90;;;;;;;2.89;92.26;98087.89;106891;1260;73023;-41
2024/01/25 05:48:31;;;;;;;6.50;4.40;;;;;;;2.85;92.64;98087.53;106932;1260;68370;-41
2024/01/25 05:50:59;;;;;;;9.60;4.50;;;;;;;2.85;92.71;98085.09;106951;1263;71747;-41
2024/01/25 05:53:27;;;;;;;7.60;4.60;;;;;;;2.92;92.73;98084.59;106863;1260;60903;-41
2024/01/25 05:55:54;;;;;;;10.20;4.80;;;;;;;2.94;92.70;98081.23;106900;1260;59535;-41
2024/01/25 05:58:22;;;;;;;7.00;4.30;;;;;;;2.91;92.64;98078.36;106852;1260;72973;-41
2024/01/25 06:00:50;;;;;;;8.20;4.60;;;;;;;2.89;93.03;98081.84;106900;1260;67443;-41
2024/01/25 06:03:18;;;;;;;8.80;4.60;;;;;;;2.93;93.13;98081.80;107001;1260;72710;-41
2024/01/25 06:05:46;;;;;;;7.40;4.40;;;;;;;3.01;93.00;98077.59;106984;1260;60084;-41
2024/01/25 06:08:14;;;;;;;8.20;4.80;;;;;;;3.04;93.03;98074.31;106958;1260;60773;-41
2024/01/25 06:10:42;;;;;;;8.60;4.50;;;;;;;3.03;93.21;98073.50;106961;1260;73320;-41
2024/01/25 06:13:11;;;;;;;8.10;4.60;;;;;;;3.01;93.31;98076.06;106992;1260;68675;-41
2024/01/25 06:15:39;;;;;;;8.60;4.70;;;;;;;3.07;93.22;98075.45;107016;1260;71381;-40
2024/01/25 06:18:07;;;;;;;10.20;5.50;;;;;;;3.12;93.00;98067.85;107041;1265;59637;-40
2024/01/25 06:20:35;;;;;;;7.80;5.30;;;;;;;3.12;93.13;98068.84;107032;1260;60486;-40
2024/01/25 06:23:02;;;;;;;9.70;5.00;;;;;;;3.09;93.37;98071.16;106981;1261;73397;-40
2024/01/25 06:25:30;;;;;;;8.60;4.60;;;;;;;3.10;93.35;98071.30;107004;1260;68267;-41
2024/01/25 06:27:59;;;;;;;8.10;4.00;;;;;;;3.16;93.22;98070.88;106967;1263;71410;-41
2024/01/25 06:30:27;;;;;;;9.50;4.30;;;;;;;3.24;93.00;98067.63;107076;1262;60077;-40
2024/01/25 06:32:54;;;;;;;8.10;4.50;;;;;;;3.24;93.12;98067.51;107010;1264;61005;-40
2024/01/25 06:35:22;;;;;;;7.70;3.70;;;;;;;3.22;93.10;98068.37;106997;1260;72085;-42
2024/01/25 06:37:50;;;;;;;10.40;4.70;;;;;;;3.25;92.80;98061.63;106882;1261;68382;-41
2024/01/25 06:40:18;;;;;;;7.70;4.20;;;;;;;3.31;92.49;98065.84;106886;1260;72833;-41
2024/01/25 06:42:46;;;;;;;9.40;4.70;;;;;;;3.31;92.23;98062.61;106920;1264;59650;-41
2024/01/25 06:45:13;;;;;;;6.40;4.00;;;;;;;3.27;92.40;98062.12;106981;1265;60013;-41
2024/01/25 06:47:41;;;;;;;9.60;4.10;;;;;;;3.23;92.39;98057.13;107019;1260;73023;-41
2024/01/25 06:50:09;;;;;;;9.10;4.20;;;;;;;3.27;92.29;98061.59;107022;1260;68328;-41
2024/01/25 06:52:37;;;;;;;9.60;4.80;;;;;;;3.28;92.35;98060.88;107103;1260;72759;-41
2024/01/25 06:55:05;;;;;;;7.90;4.50;;;;;;;3.26;92.45;98062.19;106993;1265;59525;-40
2024/01/25 06:57:33;;;;;;;8.00;4.50;;;;;;;3.23;92.70;98066.63;106994;1260;60027;-40
2024/01/25 07:00:01;;;;;;;7.00;4.00;;;;;;;3.25;92.61;98068.36;107014;1260;71183;-40
2024/01/25 07:02:30;;;;;;;10.40;4.30;;;;;;;3.29;92.34;98067.95;106983;1260;67095;-40
2024/01/25 07:05:01;;;;;;;10.20;4.40;;;;;;;3.30;92.15;98066.73;107032;1261;72664;-40
2024/01/25 07:07:32;;;;;;;9.10;4.40;;;;;;;3.26;92.39;98067.55;106985;1263;59974;-40
2024/01/25 07:09:59;;;;;;;9.70;4.60;;;;;;;3.21;92.54;98066.31;106963;1260;60085;-40
2024/01/25 07:12:28;;;;;;;8.60;3.70;;;;;;;3.21;92.34;98065.56;106879;1260;73385;-41
2024/01/25 07:14:56;;;;;;;7.80;3.90;;;;;;;3.24;92.31;98062.98;106966;1260;68329;-40
2024/01/25 07:17:24;;;;;;;8.00;4.20;;;;;;;3.25;92.42;98067.89;106981;1261;73220;-40
2024/01/25 07:19:51;;;;;;;9.30;4.30;;;;;;;3.23;92.77;98063.17;106981;1260;60117;-41
2024/01/25 07:22:21;;;;;;;8.30;4.10;;;;;;;3.21;92.97;98061.74;106857;1260;60159;-40
2024/01/25 07:24:49;;;;;;;;;;;;;;;3.27;92.86;98060.38;107243;1257;73579;-41
2024/01/25 07:27:16;;;;;;;10.40;5.30;;;;;;;3.34;92.67;98062.86;107262;1257;67513;-40
2024/01/25 07:29:45;;;;;;;13.70;7.30;;;;;;;3.35;92.81;98062.25;107192;1257;72678;-40
2024/01/25 07:32:12;;;;;;;18.30;9.30;;;;;;;3.32;93.02;98062.20;107114;1257;59771;-41
2024/01/25 07:34:40;;;;;;;16.00;8.00;;;;;;;3.31;93.01;98065.85;107137;1257;60263;-41
2024/01/25 07:37:08;;;;;;;13.50;7.20;;;;;;;3.37;92.87;98065.55;107187;1257;72152;-41
2024/01/25 07:39:35;;;;;;;11.70;6.60;;;;;;;3.45;92.81;98062.98;107138;1257;68840;-41
2024/01/25 07:42:03;;;;;;;11.50;5.40;;;;;;;3.47;92.69;98062.23;107241;1257;71087;-41
2024/01/25 07:44:31;;;;;;;10.00;5.40;;;;;;;3.46;92.80;98064.95;107150;1257;60178;-41
2024/01/25 07:46:59;;;;;;;8.10;4.30;;;;;;;3.47;92.76;98059.15;107135;1256;59662;-41
2024/01/25 07:49:26;;;;;;;7.20;4.20;;;;;;;3.54;92.47;98062.23;107204;1257;71852;-41
2024/01/25 07:51:56;;;;;;;8.30;4.20;;;;;;;3.58;92.06;98060.52;107114;1257;68319;-41
2024/01/25 07:54:24;;;;;;;10.10;4.30;;;;;;;3.57;92.12;98060.31;107209;1257;71404;-41
2024/01/25 07:56:51;;;;;;;9.70;4.60;;;;;;;3.54;92.32;98060.38;107238;1257;59634;-41
2024/01/25 07:59:19;;;;;;;8.70;4.50;;;;;;;3.54;92.16;98059.85;107224;1257;59531;-41
2024/01/25 08:01:46;;;;;;;12.60;4.60;;;;;;;3.59;91.89;98061.28;107221;1257;73114;-41
2024/01/25 08:04:14;;;;;;;9.30;4.80;;;;;;;3.60;91.72;98059.23;107241;1256;66253;-41
2024/01/25 08:06:42;;;;;;;7.70;4.30;;;;;;;3.56;91.87;98063.20;107199;1257;72960;-41
2024/01/25 08:09:10;;;;;;;8.30;4.40;;;;;;;3.51;92.14;98060.46;107239;1257;61151;-41
2024/01/25 08:11:38;;;;;;;8.20;3.90;;;;;;;3.55;92.06;98061.34;107208;1257;59198;-42
2024/01/25 08:14:06;;;;;;;8.90;4.90;;;;;;;3.61;92.02;98058.58;107218;1257;73949;-42
2024/01/25 08:16:35;;;;;;;10.50;4.40;;;;;;;3.63;92.23;98060.46;107197;1257;68788;-41
2024/01/25 08:19:03;;;;;;;10.30;4.50;;;;;;;3.62;92.42;98062.66;107192;1257;72678;-41
2024/01/25 08:21:31;;;;;;;12.20;4.20;;;;;;;3.62;92.50;98062.13;107277;1257;60539;-41
2024/01/25 08:23:59;;;;;;;10.70;4.50;;;;;;;3.68;92.14;98064.27;107257;1257;60319;-41
2024/01/25 08:26:27;;;;;;;10.50;4.20;;;;;;;3.74;92.03;98065.19;107247;1257;73158;-41
2024/01/25 08:28:54;;;;;;;12.70;4.40;;;;;;;3.75;91.93;98062.75;107211;1257;67604;-41
2024/01/25 08:31:22;;;;;;;9.30;4.60;;;;;;;3.72;92.02;98066.90;107050;1257;72715;-41
2024/01/25 08:33:49;;;;;;;10.70;4.20;;;;;;;3.70;92.13;98066.15;107071;1257;60290;-42
2024/01/25 08:36:18;;;;;;;9.70;4.70;;;;;;;3.75;91.95;98067.95;107145;1257;60294;-41
2024/01/25 08:38:46;;;;;;;9.30;4.00;;;;;;;3.80;91.76;98064.19;107089;1257;73980;-41
2024/01/25 08:41:15;;;;;;;7.80;3.80;;;;;;;3.79;91.93;98067.39;107172;1257;68673;-42
2024/01/25 08:43:44;;;;;;;9.80;4.30;;;;;;;3.78;92.22;98068.34;107165;1257;73067;-42
2024/01/25 08:46:14;;;;;;;12.40;4.70;;;;;;;3.76;92.32;98067.08;107202;1257;60958;-41
2024/01/25 08:48:42;;;;;;;9.20;4.00;;;;;;;3.82;92.20;98067.21;107122;1257;59704;-41
2024/01/25 08:51:10;;;;;;;9.70;4.20;;;;;;;3.87;92.14;98065.03;107056;1257;73925;-42
2024/01/25 08:53:37;;;;;;;7.70;3.90;;;;;;;3.89;92.10;98069.23;107106;1257;67077;-42
2024/01/25 08:56:06;;;;;;;8.60;4.30;;;;;;;3.86;92.33;98073.30;107070;1257;73233;-41
2024/01/25 08:58:33;;;;;;;8.20;3.70;;;;;;;3.88;92.29;98075.33;107133;1257;60438;-41
2024/01/25 09:01:01;;;;;;;6.20;3.10;;;;;;;3.93;92.22;98072.69;107146;1257;60466;-42
2024/01/25 09:03:29;;;;;;;9.60;3.80;;;;;;;3.97;92.27;98070.70;107218;1257;72651;-42
2024/01/25 09:05:56;;;;;;;7.70;3.90;;;;;;;4.00;92.44;98071.30;107207;1257;67208;-42
2024/01/25 09:08:24;;;;;;;9.50;3.60;;;;;;;4.01;92.54;98068.20;107199;1257;72732;-42
2024/01/25 09:10:52;;;;;;;10.80;3.70;;;;;;;4.05;92.14;98069.77;107239;1257;60434;-42
2024/01/25 09:13:20;;;;;;;9.40;3.30;;;;;;;4.13;91.81;98064.19;107208;1257;60444;-41
2024/01/25 09:15:47;;;;;;;7.50;3.50;;;;;;;4.16;91.39;98066.52;107219;1257;73046;-42
2024/01/25 09:18:15;;;;;;;8.10;3.60;;;;;;;4.13;91.38;98068.27;107201;1257;67673;-42
2024/01/25 09:20:47;;;;;;;8.70;3.70;;;;;;;4.11;91.38;98066.99;107224;1257;72409;-41
2024/01/25 09:23:16;;;;;;;7.20;3.10;;;;;;;4.18;91.14;98064.09;107167;1257;60457;-41
2024/01/25 09:25:47;;;;;;;8.50;3.60;;;;;;;4.23;90.40;98064.42;107227;1257;60450;-42
2024/01/25 09:28:16;;;;;;;6.80;3.10;;;;;;;4.20;90.23;98062.23;106482;1257;1003556;-41
2024/01/25 09:30:44;;;;;;;6.10;3.20;;;;;;;4.17;90.33;98061.77;107248;1257;66552;-41
2024/01/25 09:33:12;;;;;;;6.00;3.00;;;;;;;4.21;90.31;98057.79;107215;1261;72776;-42
2024/01/25 09:35:40;;;;;;;6.50;2.90;;;;;;;4.28;90.21;98056.42;107230;1261;59609;-41
2024/01/25 09:38:08;;;;;;;4.90;2.60;;;;;;;4.33;90.06;98053.98;107247;1257;60025;-41
2024/01/25 09:40:36;;;;;;;8.00;2.80;;;;;;;4.32;89.67;98053.12;107169;1257;72650;-42
2024/01/25 09:43:04;;;;;;;8.10;2.80;;;;;;;4.31;89.60;98048.65;107114;1257;68532;-41
2024/01/25 09:45:32;;;;;;;8.50;2.80;;;;;;;4.35;89.20;98045.54;107100;1257;72795;-41
2024/01/25 09:48:04;;;;;;;6.20;3.20;;;;;;;4.41;89.09;98047.80;107020;1257;60503;-41
2024/01/25 09:50:33;;;;;;;7.20;3.50;;;;;;;4.40;88.87;98046.17;106511;1257;1003025;-41
2024/01/25 09:53:01;;;;;;;8.30;3.20;;;;;;;4.39;89.10;98046.77;107102;1257;72639;-42
2024/01/25 09:55:29;;;;;;;7.80;3.20;;;;;;;4.44;88.76;98048.05;107079;1257;67294;-41
2024/01/25 09:57:57;;;;;;;8.40;2.80;;;;;;;4.52;88.06;98045.75;107003;1257;72393;-42
2024/01/25 10:00:25;;;;;;;5.50;2.70;;;;;;;4.53;88.07;98044.16;106989;1258;60391;-41
2024/01/25 10:02:52;;;;;;;7.60;3.20;;;;;;;4.52;88.02;98049.58;107012;1257;60515;-42
2024/01/25 10:05:20;;;;;;;5.20;2.70;;;;;;;4.53;87.93;98046.83;107108;1263;74007;-41
2024/01/25 10:07:48;;;;;;;6.00;2.80;;;;;;;4.59;87.51;98045.73;107181;1262;68688;-41
2024/01/25 10:10:16;;;;;;;7.10;2.80;;;;;;;4.63;86.97;98044.77;107228;1257;71489;-42
2024/01/25 10:12:44;;;;;;;7.30;2.90;;;;;;;4.63;87.04;98038.39;107201;1257;60533;-42
2024/01/25 10:15:11;;;;;;;6.70;2.70;;;;;;;4.64;87.13;98036.66;107238;1256;60062;-42
2024/01/25 10:17:39;;;;;;;8.00;3.20;;;;;;;4.73;86.96;98035.70;107246;1260;73874;-42
2024/01/25 10:20:27;;;;;;;7.70;2.60;;;;;;;4.89;86.67;98031.41;107241;1260;68662;-41
2024/01/25 10:22:58;;;;;;;7.10;3.40;;;;;;;4.94;86.39;98029.36;107309;1257;71579;-41
2024/01/25 10:25:28;;;;;;;9.30;3.00;;;;;;;4.97;86.38;98031.78;107294;1257;60417;-42
2024/01/25 10:27:57;;;;;;;5.10;2.70;;;;;;;5.01;85.88;98027.70;107210;1257;59287;-42
2024/01/25 10:30:25;;;;;;;6.90;3.10;;;;;;;5.08;84.99;98027.48;107142;1256;72921;-39
2024/01/25 10:32:52;;;;;;;6.70;3.00;;;;;;;5.10;84.85;98027.20;107210;1256;69200;-40
2024/01/25 10:35:20;;;;;;;5.40;2.60;;;;;;;5.07;84.91;98021.99;107080;1256;72586;-41
2024/01/25 10:37:52;;;;;;;7.20;2.70;;;;;;;5.04;85.05;98024.08;107137;1256;60491;-41
2024/01/25 10:40:20;;;;;;;6.50;2.70;;;;;;;5.07;84.97;98018.23;107166;1256;59212;-41
2024/01/25 10:42:48;;;;;;;5.40;2.40;;;;;;;5.14;84.63;98019.21;107269;1256;72592;-41
2024/01/25 10:45:15;;;;;;;5.60;2.40;;;;;;;5.14;84.68;98021.60;107202;1256;67133;-41
2024/01/25 10:47:44;;;;;;;6.60;2.50;;;;;;;5.13;84.60;98020.66;107225;1260;72830;-41
2024/01/25 10:50:13;;;;;;;6.20;2.60;;;;;;;5.17;84.00;98021.13;107196;1257;60971;-41
2024/01/25 10:52:41;;;;;;;6.40;2.60;;;;;;;5.20;83.81;98023.16;107233;1257;60552;-41
2024/01/25 10:55:09;;;;;;;7.20;2.70;;;;;;;5.14;83.72;98023.73;107154;1257;73981;-41
2024/01/25 10:57:38;;;;;;;8.20;2.70;;;;;;;5.06;84.08;98022.58;107122;1257;67742;-41
2024/01/25 11:00:09;;;;;;;5.00;2.40;;;;;;;5.05;84.11;98022.41;107186;1257;72698;-41
2024/01/25 11:02:37;;;;;;;7.90;3.00;;;;;;;5.06;83.95;98026.43;107077;1257;61018;-41
2024/01/25 11:05:13;;;;;;;5.40;2.80;;;;;;;5.01;84.19;98023.42;107208;1257;60376;-41
2024/01/25 11:07:42;;;;;;;6.80;2.80;;;;;;;4.94;84.40;98021.60;107221;1256;73990;-41
2024/01/25 11:10:17;;;;;;;4.90;2.60;;;;;;;4.88;84.68;98022.56;107246;1256;68590;-41
2024/01/25 11:12:52;;;;;;;7.30;2.40;;;;;;;4.89;84.57;98025.42;107233;1256;72697;-41
2024/01/25 11:15:30;;;;;;;4.40;2.60;;;;;;;4.90;84.53;98019.84;107281;1257;60440;-41
2024/01/25 11:17:58;;;;;;;5.30;2.60;;;;;;;4.87;84.57;98019.39;107279;1260;60348;-41
2024/01/25 11:20:27;;;;;;;6.20;2.70;;;;;;;4.82;84.79;98018.22;107233;1257;72717;-41
2024/01/25 11:22:59;;;;;;;;;;;;;;;4.80;84.87;98020.94;107241;1257;67399;-41
2024/01/25 11:25:28;;;;;;;3.50;2.30;;;;;;;4.83;84.75;98023.39;107204;1260;71420;-40
2024/01/25 11:27:57;;;;;;;5.00;2.90;;;;;;;4.84;84.77;98020.02;107267;1257;60420;-40
2024/01/25 11:30:25;;;;;;;5.40;2.30;;;;;;;4.81;84.85;98019.20;107239;1256;60373;-40
2024/01/25 11:32:53;;;;;;;4.80;2.60;;;;;;;4.77;84.97;98019.83;107256;1260;74010;-40
2024/01/25 11:35:21;;;;;;;6.10;2.50;;;;;;;4.78;85.02;98017.07;107219;1257;67730;-40
2024/01/25 11:37:53;;;;;;;5.40;2.60;;;;;;;4.83;84.93;98016.95;107175;1260;72949;-40